Time;durP1;ratioP1;P1;durP2;ratioP2;P2;SDS_P1;SDS_P2;PMS_P1;PMS_P2;Temp;Humidity;BMP_temperature;BMP_pressure;BME280_temperature;BME280_humidity;BME280_pressure;Samples;Min_cycle;Max_cycle;Signal;HPM_P1;HPM_P2
2021/10/15 00:00:32;;;;;;;23.40;18.75;;;13.40;99.90;;;;;;5010612;28;20128;-73
2021/10/15 00:03:00;;;;;;;20.92;18.60;;;13.40;99.90;;;;;;5031297;28;20486;-72
2021/10/15 00:05:31;;;;;;;24.92;19.73;;;13.40;99.90;;;;;;5031656;28;20042;-72
2021/10/15 00:07:59;;;;;;;24.60;20.42;;;13.40;99.90;;;;;;5046145;28;20080;-73
2021/10/15 00:10:25;;;;;;;23.83;20.88;;;13.40;99.90;;;;;;5048706;28;20060;-72
2021/10/15 00:12:51;;;;;;;27.80;22.73;;;13.40;99.90;;;;;;5045173;28;20037;-72
2021/10/15 00:15:18;;;;;;;28.77;22.20;;;13.40;99.90;;;;;;5031466;28;20033;-73
2021/10/15 00:17:43;;;;;;;26.77;23.75;;;13.40;99.90;;;;;;5046875;28;20041;-72
2021/10/15 00:20:11;;;;;;;26.70;24.00;;;13.40;99.90;;;;;;5026304;28;20045;-72
2021/10/15 00:22:37;;;;;;;27.00;24.10;;;13.40;99.90;;;;;;5028005;28;20053;-72
2021/10/15 00:25:03;;;;;;;30.25;26.05;;;13.40;99.90;;;;;;5030934;28;20072;-72
2021/10/15 00:27:29;;;;;;;33.38;26.17;;;13.40;99.90;;;;;;5031419;28;20500;-72
2021/10/15 00:29:54;;;;;;;33.15;27.40;;;13.40;99.90;;;;;;5024438;28;20059;-72
2021/10/15 00:32:20;;;;;;;30.75;27.25;;;13.40;99.90;;;;;;5047684;28;20045;-73
2021/10/15 00:34:46;;;;;;;31.45;28.02;;;13.40;99.90;;;;;;5038946;28;20029;-71
2021/10/15 00:37:12;;;;;;;30.15;26.23;;;13.40;99.90;;;;;;5012507;28;20037;-71
2021/10/15 00:39:37;;;;;;;28.67;25.67;;;13.40;99.90;;;;;;5042914;28;20590;-72
2021/10/15 00:42:03;;;;;;;27.13;24.08;;;13.40;99.90;;;;;;5027881;28;20045;-72
2021/10/15 00:44:29;;;;;;;28.20;25.13;;;13.40;99.90;;;;;;5044691;28;20130;-72
2021/10/15 00:46:55;;;;;;;26.70;23.77;;;13.40;99.90;;;;;;5045485;28;20131;-72
2021/10/15 00:49:21;;;;;;;27.58;23.73;;;13.40;99.90;;;;;;5047371;28;20041;-72
2021/10/15 00:51:47;;;;;;;26.23;23.45;;;13.50;99.90;;;;;;5046568;28;20049;-71
2021/10/15 00:54:15;;;;;;;27.27;23.23;;;13.50;99.90;;;;;;5030382;28;20041;-72
2021/10/15 00:56:43;;;;;;;27.17;23.05;;;13.40;99.90;;;;;;5029676;28;20044;-73
2021/10/15 00:59:09;;;;;;;28.50;24.17;;;13.50;99.90;;;;;;5046949;28;20072;-72
2021/10/15 01:01:35;;;;;;;27.58;23.98;;;13.40;99.90;;;;;;5029834;28;20079;-72
2021/10/15 01:04:02;;;;;;;28.23;25.17;;;13.40;99.90;;;;;;5027998;28;20040;-72
2021/10/15 01:06:29;;;;;;;27.40;24.45;;;13.40;99.90;;;;;;5046793;28;20054;-72
2021/10/15 01:08:55;;;;;;;28.08;24.85;;;13.40;99.90;;;;;;5039435;28;20144;-72
2021/10/15 01:11:22;;;;;;;30.90;27.58;;;13.40;99.90;;;;;;5030248;28;20077;-72
2021/10/15 01:13:48;;;;;;;31.20;27.40;;;13.40;99.90;;;;;;5027916;28;20079;-72
2021/10/15 01:16:15;;;;;;;30.70;27.48;;;13.40;99.90;;;;;;5030077;28;20499;-71
2021/10/15 01:18:42;;;;;;;31.67;27.10;;;13.40;99.90;;;;;;5029876;28;20827;-72
2021/10/15 01:21:12;;;;;;;30.88;27.58;;;13.30;99.90;;;;;;5046236;28;20043;-72
2021/10/15 01:23:39;;;;;;;32.33;28.67;;;13.40;99.90;;;;;;5013019;28;20448;-72
2021/10/15 01:26:06;;;;;;;34.28;29.40;;;13.40;99.90;;;;;;5046413;28;20052;-72
2021/10/15 01:28:35;;;;;;;35.63;29.90;;;13.40;99.90;;;;;;5013684;28;20041;-72
2021/10/15 01:31:02;;;;;;;37.35;30.42;;;13.40;99.90;;;;;;5029629;28;20107;-72
2021/10/15 01:33:28;;;;;;;33.65;30.15;;;13.30;99.90;;;;;;5029649;28;20564;-72
2021/10/15 01:35:54;;;;;;;35.95;31.42;;;13.30;99.90;;;;;;5046055;28;20037;-71
2021/10/15 01:38:20;;;;;;;33.75;30.23;;;13.30;99.90;;;;;;5007794;28;20034;-72
2021/10/15 01:40:46;;;;;;;37.85;32.10;;;13.30;99.90;;;;;;5041038;28;20060;-72
2021/10/15 01:43:21;;;;;;;36.53;31.85;;;13.30;99.90;;;;;;5046600;28;20075;-72
2021/10/15 01:45:47;;;;;;;38.05;33.80;;;13.30;99.90;;;;;;5045520;28;20132;-73
2021/10/15 01:48:12;;;;;;;34.63;30.95;;;13.30;99.90;;;;;;5041174;28;20124;-72
2021/10/15 01:50:38;;;;;;;34.80;31.13;;;13.30;99.90;;;;;;5019602;28;20504;-72
2021/10/15 01:53:04;;;;;;;36.00;32.10;;;13.30;99.90;;;;;;5045211;28;20044;-71
2021/10/15 01:55:30;;;;;;;37.58;32.33;;;13.30;99.90;;;;;;5045300;28;20042;-72
2021/10/15 01:57:56;;;;;;;36.28;32.67;;;13.30;99.90;;;;;;5046053;28;20124;-72
2021/10/15 02:00:22;;;;;;;36.42;31.45;;;13.30;99.90;;;;;;5044973;28;20072;-72
2021/10/15 02:02:48;;;;;;;37.67;32.70;;;13.30;99.90;;;;;;5043577;28;20047;-73
2021/10/15 02:05:16;;;;;;;40.83;32.80;;;13.30;99.90;;;;;;5030460;28;20044;-72
2021/10/15 02:07:45;;;;;;;35.60;31.75;;;13.30;99.90;;;;;;5020876;28;20081;-72
2021/10/15 02:10:13;;;;;;;36.40;32.47;;;13.30;99.90;;;;;;5044750;28;20045;-72
2021/10/15 02:12:39;;;;;;;37.80;30.95;;;13.30;99.90;;;;;;5036866;28;20114;-72
2021/10/15 02:15:07;;;;;;;35.28;31.58;;;13.20;99.90;;;;;;5025695;28;20037;-72
2021/10/15 02:17:33;;;;;;;33.30;29.70;;;13.20;99.90;;;;;;5039967;28;20452;-72
2021/10/15 02:19:59;;;;;;;34.95;31.00;;;13.20;99.90;;;;;;5047986;28;20053;-71
2021/10/15 02:22:25;;;;;;;33.13;29.17;;;13.20;99.90;;;;;;5031685;28;20767;-72
2021/10/15 02:24:51;;;;;;;32.67;28.95;;;13.20;99.90;;;;;;5030517;28;20068;-71
2021/10/15 02:27:16;;;;;;;32.92;27.98;;;13.30;99.90;;;;;;5025917;28;20049;-72
2021/10/15 02:29:42;;;;;;;30.67;26.38;;;13.20;99.90;;;;;;5047260;28;20434;-72
2021/10/15 02:32:08;;;;;;;31.95;27.08;;;13.20;99.90;;;;;;5046480;28;20094;-72
2021/10/15 02:34:34;;;;;;;30.20;27.00;;;13.20;99.90;;;;;;5046922;28;20144;-72
2021/10/15 02:37:00;;;;;;;36.45;27.08;;;13.20;99.90;;;;;;5045405;28;20083;-72
2021/10/15 02:39:25;;;;;;;34.22;27.63;;;13.30;99.90;;;;;;5030677;28;20392;-72
2021/10/15 02:41:51;;;;;;;33.60;27.95;;;13.20;99.90;;;;;;5029809;28;20041;-72
2021/10/15 02:44:18;;;;;;;33.45;26.83;;;13.30;99.90;;;;;;5030051;28;20082;-72
2021/10/15 02:46:44;;;;;;;31.98;26.08;;;13.30;99.90;;;;;;5046249;28;20045;-73
2021/10/15 02:49:11;;;;;;;33.22;27.48;;;13.30;99.90;;;;;;5040867;28;20041;-72
2021/10/15 02:51:36;;;;;;;33.42;26.38;;;13.30;99.90;;;;;;5030081;28;20045;-72
2021/10/15 02:54:03;;;;;;;31.73;26.13;;;13.30;99.90;;;;;;5046711;28;20099;-72
2021/10/15 02:56:29;;;;;;;31.48;26.85;;;13.30;99.90;;;;;;5063928;28;20053;-72
2021/10/15 02:58:55;;;;;;;31.00;26.10;;;13.30;99.90;;;;;;5041575;28;20044;-72
2021/10/15 03:01:21;;;;;;;31.73;24.88;;;13.30;99.90;;;;;;5045493;28;20045;-72
2021/10/15 03:03:48;;;;;;;31.52;25.77;;;13.30;99.90;;;;;;5043024;28;20525;-72
2021/10/15 03:06:17;;;;;;;28.38;23.73;;;13.30;99.90;;;;;;5030027;28;20132;-72
2021/10/15 03:08:43;;;;;;;29.50;23.27;;;13.30;99.90;;;;;;5046738;28;20462;-72
2021/10/15 03:11:08;;;;;;;28.35;23.38;;;13.30;99.90;;;;;;5030241;28;20053;-72
2021/10/15 03:13:35;;;;;;;27.33;22.40;;;13.30;99.90;;;;;;5026136;28;20128;-72
2021/10/15 03:16:01;;;;;;;31.10;21.95;;;13.30;99.90;;;;;;5034925;28;20478;-73
2021/10/15 03:18:29;;;;;;;24.77;21.33;;;13.40;99.90;;;;;;5030611;28;20069;-72
2021/10/15 03:20:55;;;;;;;24.65;20.17;;;13.30;99.90;;;;;;5029720;28;20735;-72
2021/10/15 03:23:21;;;;;;;30.02;21.85;;;13.40;99.90;;;;;;5046045;28;20048;-72
2021/10/15 03:25:46;;;;;;;24.67;20.92;;;13.40;99.90;;;;;;5047079;28;20111;-72
2021/10/15 03:28:12;;;;;;;25.60;20.83;;;13.40;99.90;;;;;;5049089;28;20081;-72
2021/10/15 03:30:38;;;;;;;27.00;20.65;;;13.50;99.90;;;;;;5017651;28;20139;-72
2021/10/15 03:33:05;;;;;;;29.65;20.90;;;13.40;99.90;;;;;;5049839;28;20041;-72
2021/10/15 03:35:34;;;;;;;28.33;20.33;;;13.40;99.90;;;;;;5050915;28;20052;-73
2021/10/15 03:38:00;;;;;;;28.60;21.02;;;13.40;99.90;;;;;;5048378;28;20127;-71
2021/10/15 03:40:26;;;;;;;27.50;21.80;;;13.50;99.90;;;;;;5049963;28;20140;-72
2021/10/15 03:42:52;;;;;;;30.08;21.48;;;13.40;99.90;;;;;;5049525;28;20206;-72
2021/10/15 03:45:17;;;;;;;29.60;22.05;;;13.40;99.90;;;;;;5049830;28;20041;-72
2021/10/15 03:47:45;;;;;;;26.63;19.85;;;13.40;99.90;;;;;;5049230;28;20643;-72
2021/10/15 03:50:13;;;;;;;28.58;19.63;;;13.50;99.90;;;;;;5036134;28;20061;-72
2021/10/15 03:52:39;;;;;;;27.35;20.35;;;13.40;99.90;;;;;;5050714;28;20052;-72
2021/10/15 03:55:06;;;;;;;27.85;19.98;;;13.40;99.90;;;;;;5049829;28;20048;-72
2021/10/15 03:57:34;;;;;;;26.33;18.55;;;13.40;99.90;;;;;;5050943;28;20052;-72
2021/10/15 04:00:00;;;;;;;28.13;20.23;;;13.50;99.90;;;;;;5033641;28;20036;-72
2021/10/15 04:02:26;;;;;;;25.55;18.35;;;13.40;99.90;;;;;;5047635;28;20576;-72
2021/10/15 04:04:52;;;;;;;21.75;17.35;;;13.40;99.90;;;;;;5050638;28;20053;-72
2021/10/15 04:07:17;;;;;;;24.92;18.08;;;13.50;99.90;;;;;;5049596;28;20041;-72
2021/10/15 04:09:43;;;;;;;23.23;17.58;;;13.40;99.90;;;;;;5051119;28;20091;-72
2021/10/15 04:12:09;;;;;;;24.98;17.75;;;13.40;99.90;;;;;;5063139;28;20045;-73
2021/10/15 04:14:35;;;;;;;26.95;16.45;;;13.50;99.90;;;;;;5014656;28;20107;-72
2021/10/15 04:17:04;;;;;;;21.05;15.93;;;13.40;99.90;;;;;;5029694;28;20148;-72
2021/10/15 04:19:30;;;;;;;21.33;14.10;;;13.40;99.90;;;;;;5064710;28;20048;-72
2021/10/15 04:21:55;;;;;;;24.13;14.40;;;13.50;99.90;;;;;;5013377;28;20041;-71
2021/10/15 04:24:21;;;;;;;21.23;14.07;;;13.50;99.90;;;;;;5030014;28;20124;-72
2021/10/15 04:26:47;;;;;;;20.08;13.32;;;13.50;99.90;;;;;;5016889;28;20063;-72
2021/10/15 04:29:13;;;;;;;20.85;13.40;;;13.50;99.90;;;;;;5048744;28;20764;-73
2021/10/15 04:31:39;;;;;;;21.48;12.57;;;13.50;99.90;;;;;;5049965;28;20407;-72
2021/10/15 04:34:04;;;;;;;16.63;12.55;;;13.50;99.90;;;;;;5048720;28;20041;-72
2021/10/15 04:36:31;;;;;;;20.17;12.00;;;13.50;99.90;;;;;;5044336;28;20053;-73
2021/10/15 04:39:03;;;;;;;18.33;10.05;;;13.50;99.90;;;;;;5012743;28;20132;-72
2021/10/15 04:41:29;;;;;;;21.17;12.35;;;13.50;99.90;;;;;;5029736;28;20041;-72
2021/10/15 04:43:56;;;;;;;19.85;11.82;;;13.50;99.90;;;;;;5013154;28;20497;-72
2021/10/15 04:46:22;;;;;;;20.75;12.18;;;13.50;99.90;;;;;;5013262;28;20148;-72
2021/10/15 04:48:48;;;;;;;19.15;11.65;;;13.50;99.90;;;;;;5040557;28;20191;-72
2021/10/15 04:51:14;;;;;;;24.63;13.80;;;13.50;99.90;;;;;;5048450;28;20062;-72
2021/10/15 04:53:39;;;;;;;21.25;13.43;;;13.50;99.90;;;;;;5047782;28;20059;-73
2021/10/15 04:56:05;;;;;;;25.90;14.82;;;13.40;99.90;;;;;;5029784;28;20041;-72
2021/10/15 04:58:34;;;;;;;29.13;14.45;;;13.40;99.90;;;;;;5030127;28;20045;-71
2021/10/15 05:01:00;;;;;;;26.33;15.20;;;13.40;99.90;;;;;;5028617;28;20041;-71
2021/10/15 05:03:25;;;;;;;25.15;15.73;;;13.30;99.90;;;;;;5028882;28;20037;-71
2021/10/15 05:05:51;;;;;;;21.15;15.63;;;13.30;99.90;;;;;;5014098;28;20132;-71
2021/10/15 05:08:17;;;;;;;28.38;15.90;;;13.30;99.90;;;;;;5029608;28;20148;-70
2021/10/15 05:10:44;;;;;;;28.27;16.67;;;13.20;99.90;;;;;;5047173;28;20036;-71
2021/10/15 05:13:13;;;;;;;31.33;16.75;;;13.20;99.90;;;;;;5026914;28;20487;-72
2021/10/15 05:15:41;;;;;;;26.27;15.00;;;13.10;99.90;;;;;;5030802;28;20128;-72
2021/10/15 05:18:10;;;;;;;28.48;15.05;;;13.10;99.90;;;;;;5013753;28;20570;-71
2021/10/15 05:20:36;;;;;;;28.30;14.75;;;13.10;99.90;;;;;;5047440;28;20056;-72
2021/10/15 05:23:04;;;;;;;23.23;13.90;;;13.10;99.90;;;;;;5047250;28;20036;-71
2021/10/15 05:25:30;;;;;;;24.17;11.52;;;13.00;99.90;;;;;;5030212;28;20044;-71
2021/10/15 05:27:56;;;;;;;18.80;10.35;;;13.00;99.90;;;;;;5046974;28;20037;-71
2021/10/15 05:30:22;;;;;;;20.50;9.35;;;13.00;99.90;;;;;;5026603;28;20041;-72
2021/10/15 05:32:47;;;;;;;19.90;9.45;;;13.00;99.90;;;;;;5043197;28;20457;-71
2021/10/15 05:35:13;;;;;;;22.65;10.50;;;13.00;99.90;;;;;;5044924;28;20045;-73
2021/10/15 05:37:39;;;;;;;7.07;2.92;;;13.00;99.90;;;;;;5042852;28;20053;-72
2021/10/15 05:40:06;;;;;;;4.85;1.23;;;13.10;99.90;;;;;;5028702;28;20036;-71
2021/10/15 05:42:34;;;;;;;3.05;0.80;;;12.90;99.90;;;;;;5030509;28;20053;-72
2021/10/15 05:45:00;;;;;;;2.88;0.60;;;12.70;99.90;;;;;;5030545;28;20052;-71
2021/10/15 05:47:26;;;;;;;2.78;0.30;;;12.50;99.90;;;;;;5026819;28;20045;-71
2021/10/15 05:49:52;;;;;;;4.10;0.50;;;12.30;99.90;;;;;;5027015;28;20068;-71
2021/10/15 05:52:29;;;;;;;5.70;0.40;;;12.20;99.90;;;;;;5048316;28;20060;-72
2021/10/15 05:55:01;;;;;;;3.15;0.65;;;11.90;99.90;;;;;;5047958;28;20048;-71
2021/10/15 06:00:00;;;;;;;5.90;0.63;;;11.80;99.90;;;;;;5043694;28;20097;-71
2021/10/15 06:02:34;;;;;;;7.50;0.98;;;11.70;99.90;;;;;;5049085;28;20047;-71
2021/10/15 06:15:49;;;;;;;11.80;1.40;;;11.20;99.90;;;;;;5048042;28;20048;-72
2021/10/15 06:18:23;;;;;;;8.43;0.90;;;11.20;99.90;;;;;;5048850;28;20075;-72
2021/10/15 06:20:50;;;;;;;15.32;1.30;;;11.20;99.90;;;;;;5049062;28;20040;-72
2021/10/15 06:23:18;;;;;;;11.23;1.65;;;11.20;99.90;;;;;;5032518;28;20069;-72
2021/10/15 06:25:43;;;;;;;7.95;1.15;;;11.20;99.90;;;;;;5049251;28;20395;-72
2021/10/15 06:28:13;;;;;;;10.35;1.20;;;11.10;99.90;;;;;;5048409;28;20037;-72
2021/10/15 06:30:40;;;;;;;14.10;1.90;;;11.20;99.90;;;;;;5048219;28;20148;-72
2021/10/15 06:33:06;;;;;;;12.60;1.58;;;11.20;99.90;;;;;;5031181;28;20044;-72
2021/10/15 06:35:32;;;;;;;9.65;1.38;;;11.10;99.90;;;;;;5031354;28;20677;-72
2021/10/15 06:37:59;;;;;;;7.53;1.25;;;11.00;99.90;;;;;;5048392;28;20044;-72
2021/10/15 06:40:25;;;;;;;7.75;1.33;;;11.00;99.90;;;;;;5048950;28;20059;-72
2021/10/15 06:42:50;;;;;;;7.75;1.40;;;11.00;99.90;;;;;;5048705;28;20388;-72
2021/10/15 06:45:17;;;;;;;12.93;2.03;;;11.00;99.90;;;;;;5048510;28;20048;-71
2021/10/15 06:47:43;;;;;;;9.88;1.42;;;11.00;99.90;;;;;;5048057;28;20045;-71
2021/10/15 06:50:09;;;;;;;9.18;1.60;;;10.90;99.90;;;;;;5048773;28;20198;-72
2021/10/15 06:52:47;;;;;;;7.80;1.02;;;11.00;99.90;;;;;;5046070;28;20143;-72
2021/10/15 06:55:18;;;;;;;10.18;1.50;;;10.90;99.90;;;;;;5030078;28;20040;-72
2021/10/15 06:57:44;;;;;;;9.15;1.50;;;10.90;99.90;;;;;;5030844;28;20048;-72
2021/10/15 07:00:12;;;;;;;12.88;2.40;;;10.80;99.90;;;;;;5044245;28;20068;-72
2021/10/15 07:02:38;;;;;;;14.95;2.22;;;10.90;99.90;;;;;;5037483;28;20047;-72
2021/10/15 07:05:04;;;;;;;5.40;1.23;;;10.90;99.90;;;;;;5019266;28;20070;-72
2021/10/15 07:07:30;;;;;;;6.10;1.00;;;10.90;99.90;;;;;;5037526;28;20036;-72
2021/10/15 07:09:59;;;;;;;10.68;1.30;;;10.90;99.90;;;;;;5054837;28;20056;-72
2021/10/15 07:12:29;;;;;;;6.97;1.10;;;10.90;99.90;;;;;;5048424;28;20044;-71
2021/10/15 07:14:55;;;;;;;12.70;1.42;;;10.90;99.90;;;;;;5047892;28;20238;-71
2021/10/15 07:17:21;;;;;;;9.85;1.30;;;10.90;99.90;;;;;;5032797;28;20123;-71
2021/10/15 07:19:48;;;;;;;13.75;1.83;;;10.90;99.90;;;;;;5035162;28;20044;-71
2021/10/15 07:22:13;;;;;;;11.35;1.60;;;10.80;99.90;;;;;;5031787;28;20522;-71
2021/10/15 07:24:39;;;;;;;11.73;1.40;;;10.80;99.90;;;;;;5066840;28;20052;-71
2021/10/15 07:27:05;;;;;;;10.18;1.50;;;10.80;99.90;;;;;;5053205;28;20044;-71
2021/10/15 07:29:34;;;;;;;8.30;1.10;;;10.80;99.90;;;;;;5055889;28;20045;-72
2021/10/15 07:32:00;;;;;;;8.82;1.20;;;10.80;99.90;;;;;;5035165;28;20435;-71
2021/10/15 07:34:26;;;;;;;9.65;1.20;;;10.80;99.90;;;;;;5032644;28;20586;-70
2021/10/15 07:36:52;;;;;;;5.65;1.23;;;10.80;99.90;;;;;;5035390;28;20130;-71
2021/10/15 07:39:18;;;;;;;12.45;1.65;;;10.80;99.90;;;;;;5057521;28;20041;-71
2021/10/15 07:41:45;;;;;;;11.05;1.90;;;10.80;99.90;;;;;;5053008;28;20528;-72
2021/10/15 07:44:15;;;;;;;7.50;1.30;;;10.80;99.90;;;;;;5067128;28;20040;-71
2021/10/15 07:46:45;;;;;;;8.05;1.23;;;10.90;99.90;;;;;;5029091;28;20416;-71
2021/10/15 07:49:11;;;;;;;10.60;1.60;;;10.90;99.90;;;;;;5052535;28;20198;-71
2021/10/15 07:51:37;;;;;;;10.48;1.20;;;11.00;99.90;;;;;;5024254;28;20622;-72
2021/10/15 07:54:03;;;;;;;8.32;1.20;;;11.20;99.90;;;;;;5061751;28;20426;-71
2021/10/15 07:56:33;;;;;;;8.60;1.40;;;11.30;99.90;;;;;;5027145;28;20041;-71
2021/10/15 07:59:00;;;;;;;9.02;1.40;;;11.30;99.90;;;;;;5056729;28;20055;-71
2021/10/15 08:01:26;;;;;;;6.43;1.15;;;11.40;99.90;;;;;;5036682;28;20036;-71
2021/10/15 08:03:52;;;;;;;8.00;0.95;;;11.50;99.90;;;;;;5027919;28;20135;-71
2021/10/15 08:06:19;;;;;;;6.38;1.10;;;11.60;99.90;;;;;;5032740;28;20510;-70
2021/10/15 08:08:44;;;;;;;8.40;1.33;;;11.70;99.90;;;;;;5044704;28;20094;-71
2021/10/15 08:11:12;;;;;;;7.75;1.30;;;11.80;99.90;;;;;;5037797;28;20426;-71
2021/10/15 08:13:38;;;;;;;7.32;1.30;;;11.90;99.90;;;;;;5047597;28;20040;-71
2021/10/15 08:16:07;;;;;;;8.98;1.20;;;12.00;99.90;;;;;;5047848;28;20056;-71
2021/10/15 08:18:33;;;;;;;9.48;1.45;;;11.90;99.90;;;;;;5041676;28;20610;-71
2021/10/15 08:20:58;;;;;;;6.18;1.63;;;11.90;99.90;;;;;;5025261;28;20131;-71
2021/10/15 08:23:26;;;;;;;7.65;1.75;;;11.90;99.90;;;;;;5030650;28;20483;-71
2021/10/15 08:25:55;;;;;;;8.55;1.80;;;11.90;99.90;;;;;;5059181;28;20167;-71
2021/10/15 08:28:22;;;;;;;8.48;1.88;;;12.10;99.90;;;;;;5044369;28;20555;-71
2021/10/15 08:30:48;;;;;;;8.95;1.50;;;12.40;99.90;;;;;;5027450;28;20491;-71
2021/10/15 08:33:14;;;;;;;7.07;1.17;;;12.50;99.90;;;;;;5076438;28;20040;-71
2021/10/15 08:35:40;;;;;;;6.63;1.40;;;12.50;99.90;;;;;;5058939;28;20547;-71
2021/10/15 08:38:09;;;;;;;12.20;2.17;;;12.40;99.90;;;;;;5043232;28;20131;-71
2021/10/15 08:40:35;;;;;;;8.05;1.30;;;12.40;99.90;;;;;;5053283;28;20522;-71
2021/10/15 08:43:01;;;;;;;9.55;1.58;;;12.30;99.90;;;;;;5023869;28;20072;-71
2021/10/15 08:45:32;;;;;;;8.55;1.80;;;12.10;99.90;;;;;;5022996;28;20041;-71
2021/10/15 08:48:00;;;;;;;12.23;3.15;;;12.00;99.90;;;;;;5049825;28;20056;-71
2021/10/15 08:50:26;;;;;;;11.05;1.90;;;12.00;99.90;;;;;;5051948;28;20048;-71
2021/10/15 08:52:52;;;;;;;8.68;2.08;;;12.10;99.90;;;;;;5056558;28;20532;-72
2021/10/15 08:55:19;;;;;;;9.15;1.83;;;12.20;99.90;;;;;;5043061;28;20048;-74
2021/10/15 08:57:53;;;;;;;10.55;2.72;;;12.20;99.90;;;;;;5062583;28;20040;-71
2021/10/15 09:00:56;;;;;;;13.40;3.38;;;12.30;99.90;;;;;;5041188;28;20556;-71
2021/10/15 09:03:23;;;;;;;8.70;2.35;;;12.40;99.90;;;;;;5015574;28;20160;-72
2021/10/15 09:05:53;;;;;;;10.10;1.80;;;12.40;99.90;;;;;;5048407;28;20060;-72
2021/10/15 09:08:19;;;;;;;;;;;12.50;99.90;;;;;;5035112;28;20074;-72
2021/10/15 09:10:45;;;;;;;8.32;1.67;;;12.50;99.90;;;;;;5050899;28;19927;-71
2021/10/15 09:13:19;;;;;;;14.18;2.55;;;12.60;99.90;;;;;;5066625;28;20125;-72
2021/10/15 09:15:46;;;;;;;10.10;1.80;;;12.60;99.90;;;;;;5031916;28;20128;-72
2021/10/15 09:18:18;;;;;;;9.98;1.70;;;12.70;99.90;;;;;;5037949;28;20514;-72
2021/10/15 09:20:45;;;;;;;11.05;1.77;;;12.80;99.90;;;;;;5030785;28;20055;-71
2021/10/15 09:23:12;;;;;;;10.82;2.33;;;12.80;99.90;;;;;;5036836;28;20037;-72
2021/10/15 09:25:40;;;;;;;10.43;1.85;;;12.80;99.90;;;;;;5053380;28;20503;-71
2021/10/15 09:28:20;;;;;;;11.10;1.80;;;12.70;99.90;;;;;;5049972;28;20075;-71
2021/10/15 09:30:48;;;;;;;9.87;1.57;;;12.70;99.90;;;;;;5044534;28;20507;-71
2021/10/15 09:33:17;;;;;;;12.45;1.65;;;12.70;99.90;;;;;;5049752;28;20305;-71
2021/10/15 09:35:42;;;;;;;15.45;1.90;;;12.70;99.90;;;;;;5036659;28;20036;-73
2021/10/15 09:38:10;;;;;;;10.05;1.85;;;12.80;99.90;;;;;;5023251;28;20565;-71
2021/10/15 09:40:45;;;;;;;10.48;1.90;;;12.90;99.90;;;;;;5030841;28;20126;-71
2021/10/15 09:43:13;;;;;;;13.05;2.50;;;12.90;99.90;;;;;;5023003;28;20045;-71
2021/10/15 09:45:48;;;;;;;12.25;2.75;;;12.90;99.90;;;;;;5022227;28;20045;-70
2021/10/15 09:48:24;;;;;;;9.75;2.25;;;13.00;99.90;;;;;;5045870;28;20044;-71
2021/10/15 09:51:15;;;;;;;11.02;1.80;;;13.10;99.90;;;;;;5025080;28;20048;-71
2021/10/15 09:54:04;;;;;;;8.50;1.55;;;13.10;99.90;;;;;;5039009;28;20041;-71
2021/10/15 09:56:46;;;;;;;12.90;2.60;;;13.20;99.90;;;;;;5042391;28;20053;-71
2021/10/15 09:59:12;;;;;;;15.40;2.85;;;13.30;99.90;;;;;;5039041;28;20085;-71
2021/10/15 10:01:41;;;;;;;13.05;2.38;;;13.40;99.90;;;;;;5053618;28;20128;-71
2021/10/15 10:04:09;;;;;;;16.25;2.70;;;13.40;99.90;;;;;;5012720;28;20053;-71
2021/10/15 10:06:35;;;;;;;17.45;3.33;;;13.40;99.90;;;;;;5038717;28;20037;-71
2021/10/15 10:09:09;;;;;;;14.18;2.60;;;13.30;99.90;;;;;;5033073;28;20055;-70
2021/10/15 10:11:35;;;;;;;14.93;2.78;;;13.20;99.90;;;;;;5041349;28;20119;-71
2021/10/15 10:14:02;;;;;;;19.80;2.80;;;13.10;99.90;;;;;;5016671;28;20049;-71
2021/10/15 10:16:31;;;;;;;14.25;2.58;;;12.90;99.90;;;;;;4999403;28;20049;-70
2021/10/15 10:19:02;;;;;;;14.85;2.72;;;12.90;99.90;;;;;;5000963;28;20049;-71
2021/10/15 10:21:33;;;;;;;;;;;13.00;99.90;;;;;;5038734;28;20049;-70
2021/10/15 10:24:10;;;;;;;16.00;3.10;;;13.10;99.90;;;;;;5055232;28;20595;-71
2021/10/15 10:26:49;;;;;;;15.02;2.75;;;13.20;99.90;;;;;;5030252;28;20074;-70
2021/10/15 10:29:16;;;;;;;13.13;2.45;;;13.30;99.90;;;;;;5036130;28;20522;-71
2021/10/15 10:31:42;;;;;;;13.52;2.60;;;13.40;99.90;;;;;;5045543;28;20049;-70
2021/10/15 10:34:11;;;;;;;16.65;2.70;;;13.60;98.80;;;;;;5039759;28;20247;-70
2021/10/15 10:36:38;;;;;;;13.68;2.50;;;13.60;97.80;;;;;;5043585;28;20126;-70
2021/10/15 10:39:31;;;;;;;10.93;1.98;;;13.60;97.80;;;;;;5041941;28;20601;-69
2021/10/15 10:42:15;;;;;;;14.10;2.80;;;13.50;93.90;;;;;;5045078;28;20573;-70
2021/10/15 10:44:50;;;;;;;11.63;1.95;;;13.20;95.30;;;;;;5035482;28;20504;-71
2021/10/15 10:47:15;;;;;;;10.35;2.50;;;13.00;96.90;;;;;;5013927;28;20233;-70
2021/10/15 10:50:08;;;;;;;14.73;2.83;;;13.00;95.60;;;;;;5024336;28;20040;-70
2021/10/15 10:52:57;;;;;;;11.75;3.17;;;12.90;98.10;;;;;;5021396;28;20068;-71
2021/10/15 10:55:42;;;;;;;14.02;1.98;;;13.00;98.10;;;;;;5049751;28;20204;-70
2021/10/15 10:58:37;;;;;;;14.30;2.83;;;13.00;98.70;;;;;;5024065;28;20048;-70
2021/10/15 11:01:27;;;;;;;20.42;2.50;;;13.00;98.70;;;;;;5030139;28;20049;-69
2021/10/15 11:03:55;;;;;;;10.15;2.20;;;13.10;96.90;;;;;;5023054;28;20055;-71
2021/10/15 11:06:23;;;;;;;16.27;2.53;;;13.20;95.00;;;;;;5040294;28;20084;-70
2021/10/15 11:08:51;;;;;;;10.65;2.20;;;13.30;96.70;;;;;;5037982;28;20049;-70
2021/10/15 11:11:19;;;;;;;11.73;2.10;;;13.40;96.20;;;;;;5048329;28;20036;-70
2021/10/15 11:13:46;;;;;;;10.95;2.45;;;13.60;97.00;;;;;;5029580;28;20084;-71
2021/10/15 11:16:23;;;;;;;11.82;2.17;;;13.80;95.90;;;;;;5057066;28;20041;-70
2021/10/15 11:18:48;;;;;;;17.77;2.63;;;13.90;92.10;;;;;;5045316;28;20293;-70
2021/10/15 11:21:14;;;;;;;15.90;2.40;;;13.80;92.90;;;;;;5038486;28;20036;-70
2021/10/15 11:23:40;;;;;;;14.90;2.42;;;13.60;93.60;;;;;;5044124;28;20174;-70
2021/10/15 11:26:06;;;;;;;12.95;2.78;;;13.40;93.50;;;;;;5049244;28;20529;-70
2021/10/15 11:28:33;;;;;;;16.33;2.42;;;13.20;94.90;;;;;;5049237;28;20487;-70
2021/10/15 11:30:59;;;;;;;11.95;2.28;;;13.10;95.10;;;;;;5049247;28;20045;-70
2021/10/15 11:33:26;;;;;;;13.65;2.20;;;13.10;96.30;;;;;;5047832;28;20119;-70
2021/10/15 11:35:54;;;;;;;14.75;2.75;;;13.20;96.80;;;;;;5019654;28;20052;-71
2021/10/15 11:38:27;;;;;;;15.60;2.17;;;13.30;95.50;;;;;;5018565;28;20036;-71
2021/10/15 11:40:56;;;;;;;13.70;2.38;;;13.50;94.90;;;;;;5021673;28;20056;-68
2021/10/15 11:43:28;;;;;;;16.25;2.40;;;13.60;96.60;;;;;;5004449;28;20116;-70
2021/10/15 11:46:02;;;;;;;17.20;2.33;;;13.70;95.50;;;;;;5041194;28;20056;-72
2021/10/15 11:48:36;;;;;;;11.40;2.47;;;13.60;96.70;;;;;;5044011;28;20052;-72
2021/10/15 11:51:09;;;;;;;14.35;2.92;;;13.40;96.40;;;;;;5044148;28;20064;-72
2021/10/15 11:53:40;;;;;;;14.15;3.92;;;13.20;96.60;;;;;;5030206;28;20525;-72
2021/10/15 11:56:10;;;;;;;17.80;3.90;;;13.10;97.00;;;;;;5044193;28;20097;-72
2021/10/15 11:58:41;;;;;;;13.82;3.88;;;13.10;97.90;;;;;;5031379;28;20044;-71
2021/10/15 12:01:09;;;;;;;16.67;3.20;;;13.20;98.30;;;;;;5024018;28;20049;-72
2021/10/15 12:03:45;;;;;;;17.00;3.50;;;13.30;98.20;;;;;;5048705;28;20428;-71
2021/10/15 12:06:19;;;;;;;13.63;2.88;;;13.40;97.90;;;;;;5039024;28;20048;-72
2021/10/15 12:08:47;;;;;;;12.95;2.42;;;13.60;95.30;;;;;;5033563;28;20044;-72
2021/10/15 12:11:20;;;;;;;15.90;2.75;;;13.70;97.00;;;;;;5033085;28;20041;-71
2021/10/15 12:13:47;;;;;;;12.48;2.22;;;13.80;95.80;;;;;;5030031;28;20400;-71
2021/10/15 12:16:29;;;;;;;12.10;2.42;;;13.80;96.90;;;;;;5029331;28;20037;-71
2021/10/15 12:18:57;;;;;;;14.98;3.00;;;13.90;96.40;;;;;;5031409;28;20060;-71
2021/10/15 12:21:30;;;;;;;18.30;3.22;;;14.10;92.90;;;;;;5041087;28;20119;-70
2021/10/15 12:23:56;;;;;;;12.73;2.50;;;14.20;90.70;;;;;;5065528;28;20707;-71
2021/10/15 12:26:22;;;;;;;16.95;3.20;;;14.20;91.90;;;;;;5052495;28;20049;-71
2021/10/15 12:28:48;;;;;;;13.95;2.55;;;14.10;92.40;;;;;;5034327;28;20047;-71
2021/10/15 12:31:35;;;;;;;17.02;2.90;;;13.80;94.50;;;;;;5033646;28;20123;-72
2021/10/15 12:34:04;;;;;;;11.57;2.53;;;13.60;95.90;;;;;;5033993;28;20051;-71
2021/10/15 12:36:31;;;;;;;13.00;2.72;;;13.50;97.10;;;;;;5052120;28;20088;-71
2021/10/15 12:39:23;;;;;;;12.45;2.90;;;13.60;97.80;;;;;;5053091;28;20119;-71
2021/10/15 12:41:50;;;;;;;11.80;2.88;;;13.70;97.40;;;;;;5035673;28;20037;-72
2021/10/15 12:44:28;;;;;;;9.27;2.15;;;13.90;97.50;;;;;;5051806;28;20052;-71
2021/10/15 12:47:04;;;;;;;14.00;2.50;;;14.00;97.60;;;;;;5051861;28;20052;-71
2021/10/15 12:49:52;;;;;;;13.93;3.10;;;14.20;97.80;;;;;;5069289;28;20520;-71
2021/10/15 12:52:31;;;;;;;12.43;2.35;;;14.30;97.20;;;;;;5051375;28;20049;-71
2021/10/15 12:55:21;;;;;;;12.90;2.53;;;14.50;96.50;;;;;;5050218;28;20499;-71